Time;durP1;ratioP1;P1;durP2;ratioP2;P2;SDS_P1;SDS_P2;PMS_P1;PMS_P2;Temp;Humidity;BMP_temperature;BMP_pressure;BME280_temperature;BME280_humidity;BME280_pressure;Samples;Min_cycle;Max_cycle;Signal;HPM_P1;HPM_P2
2023/05/27 00:01:26;;;;;;;0.00;0.00;;;14.50;83.10;;;;;;5069983;28;20197;-66
2023/05/27 00:03:52;;;;;;;0.00;0.00;;;14.50;83.40;;;;;;5069778;28;20191;-65
2023/05/27 00:06:17;;;;;;;0.00;0.00;;;14.50;83.60;;;;;;5069969;28;20219;-65
2023/05/27 00:08:43;;;;;;;0.10;0.10;;;14.40;83.80;;;;;;5070091;28;20177;-65
2023/05/27 00:11:08;;;;;;;0.00;0.00;;;14.40;83.90;;;;;;5069917;28;20187;-65
2023/05/27 00:13:34;;;;;;;0.00;0.00;;;14.40;84.00;;;;;;5070272;28;20184;-65
2023/05/27 00:16:00;;;;;;;0.00;0.00;;;14.30;84.10;;;;;;5069989;28;20214;-66
2023/05/27 00:18:25;;;;;;;0.00;0.00;;;14.40;84.30;;;;;;5069622;28;20187;-65
2023/05/27 00:20:51;;;;;;;0.00;0.00;;;14.30;84.30;;;;;;5070046;28;20204;-65
2023/05/27 00:23:17;;;;;;;0.00;0.00;;;14.30;84.50;;;;;;5069672;28;20176;-65
2023/05/27 00:25:42;;;;;;;0.00;0.00;;;14.30;84.50;;;;;;5069830;28;20213;-66
2023/05/27 00:28:08;;;;;;;0.00;0.00;;;14.30;84.70;;;;;;5069143;28;20278;-66
2023/05/27 00:30:34;;;;;;;0.00;0.00;;;14.30;85.10;;;;;;5069464;28;20177;-66
2023/05/27 00:32:59;;;;;;;0.10;0.10;;;14.20;85.30;;;;;;5069960;28;20567;-65
2023/05/27 00:35:25;;;;;;;0.00;0.00;;;14.10;85.50;;;;;;5068813;28;20200;-65
2023/05/27 00:37:51;;;;;;;0.00;0.00;;;14.10;86.00;;;;;;5069505;28;20198;-65
2023/05/27 00:40:21;;;;;;;0.03;0.03;;;14.10;86.20;;;;;;5069612;28;20161;-66
2023/05/27 00:42:46;;;;;;;0.00;0.00;;;14.10;86.60;;;;;;5064438;28;20181;-65
2023/05/27 00:45:12;;;;;;;0.00;0.00;;;14.00;86.80;;;;;;5068945;28;20177;-65
2023/05/27 00:47:38;;;;;;;0.00;0.00;;;14.00;87.00;;;;;;5069162;28;20212;-65
2023/05/27 00:50:04;;;;;;;0.00;0.00;;;14.00;88.00;;;;;;5070543;28;20188;-65
2023/05/27 00:52:30;;;;;;;0.57;0.57;;;14.00;87.70;;;;;;5073164;28;20274;-65
2023/05/27 00:54:56;;;;;;;0.00;0.00;;;13.90;87.90;;;;;;5071508;28;20253;-65
2023/05/27 00:57:22;;;;;;;0.00;0.00;;;13.90;88.30;;;;;;5072965;28;20598;-65
2023/05/27 00:59:47;;;;;;;0.00;0.00;;;13.90;88.50;;;;;;5072906;28;20185;-65
2023/05/27 01:02:13;;;;;;;0.00;0.00;;;13.90;88.70;;;;;;5073139;28;20196;-65
2023/05/27 01:04:39;;;;;;;0.13;0.13;;;13.80;89.00;;;;;;5073122;28;20199;-65
2023/05/27 01:07:26;;;;;;;0.20;0.20;;;13.80;89.10;;;;;;5072396;28;20212;-65
2023/05/27 01:10:02;;;;;;;0.00;0.00;;;13.80;89.40;;;;;;5072650;28;20177;-65
2023/05/27 01:12:39;;;;;;;0.00;0.00;;;13.80;89.70;;;;;;5072827;28;20180;-65
2023/05/27 01:15:07;;;;;;;0.00;0.00;;;13.80;90.00;;;;;;5072851;28;20184;-65
2023/05/27 01:17:42;;;;;;;0.05;0.05;;;13.70;90.10;;;;;;5072717;28;20189;-65
2023/05/27 01:20:13;;;;;;;0.00;0.00;;;13.70;90.20;;;;;;5066786;28;20172;-65
2023/05/27 01:22:41;;;;;;;0.05;0.05;;;13.60;90.30;;;;;;5072731;28;20177;-65
2023/05/27 01:25:10;;;;;;;0.00;0.00;;;13.60;90.40;;;;;;5072367;28;20680;-65
2023/05/27 01:27:36;;;;;;;0.00;0.00;;;13.60;90.50;;;;;;5072319;28;20212;-65
2023/05/27 01:30:02;;;;;;;0.00;0.00;;;13.60;90.60;;;;;;5072882;28;20181;-65
2023/05/27 01:32:34;;;;;;;0.05;0.05;;;13.60;90.70;;;;;;5072246;28;20540;-65
2023/05/27 01:35:20;;;;;;;0.00;0.00;;;13.50;90.80;;;;;;5072122;28;20263;-65
2023/05/27 01:37:47;;;;;;;0.00;0.00;;;13.50;91.00;;;;;;5061044;28;20251;-65
2023/05/27 01:40:14;;;;;;;0.00;0.00;;;13.50;91.10;;;;;;5072740;28;20185;-66
2023/05/27 01:42:41;;;;;;;0.00;0.00;;;13.40;91.20;;;;;;5072181;28;20709;-66
2023/05/27 01:45:08;;;;;;;0.00;0.00;;;13.40;91.40;;;;;;5071829;28;20192;-65
2023/05/27 01:47:34;;;;;;;0.00;0.00;;;13.40;91.40;;;;;;5070951;28;20683;-65
2023/05/27 01:50:00;;;;;;;0.10;0.10;;;13.40;91.50;;;;;;5071961;28;20207;-65
2023/05/27 01:52:26;;;;;;;0.00;0.00;;;13.30;91.50;;;;;;5071943;28;20211;-65
2023/05/27 01:54:51;;;;;;;0.00;0.00;;;13.30;91.50;;;;;;5072207;28;20185;-65
2023/05/27 01:57:18;;;;;;;0.00;0.00;;;13.30;91.60;;;;;;5071474;28;20188;-65
2023/05/27 01:59:43;;;;;;;0.00;0.00;;;13.20;91.70;;;;;;5072044;28;20180;-65
2023/05/27 02:02:09;;;;;;;0.00;0.00;;;13.20;91.80;;;;;;5065319;28;20181;-65
2023/05/27 02:04:35;;;;;;;0.38;0.38;;;13.20;91.90;;;;;;5060529;28;20235;-66
2023/05/27 02:07:00;;;;;;;0.00;0.00;;;13.20;92.00;;;;;;5069612;28;20291;-66
2023/05/27 02:09:26;;;;;;;0.00;0.00;;;13.20;92.00;;;;;;5071911;28;20188;-65
2023/05/27 02:11:52;;;;;;;0.00;0.00;;;13.20;92.20;;;;;;5071800;28;20242;-65
2023/05/27 02:14:17;;;;;;;0.00;0.00;;;13.10;92.20;;;;;;5071432;28;20317;-65
2023/05/27 02:16:43;;;;;;;0.00;0.00;;;13.10;92.30;;;;;;5072090;28;20203;-65
2023/05/27 02:19:09;;;;;;;0.00;0.00;;;13.10;92.40;;;;;;5071256;28;20212;-65
2023/05/27 02:21:35;;;;;;;0.00;0.00;;;13.10;92.40;;;;;;5071760;28;20203;-65
2023/05/27 02:24:01;;;;;;;0.00;0.00;;;13.10;92.40;;;;;;5071339;28;20200;-65
2023/05/27 02:26:27;;;;;;;0.00;0.00;;;13.10;92.50;;;;;;5071055;28;20224;-65
2023/05/27 02:28:53;;;;;;;0.10;0.10;;;13.00;92.50;;;;;;5070992;28;20187;-65
2023/05/27 02:31:18;;;;;;;0.00;0.00;;;13.10;92.60;;;;;;5071546;28;20204;-65
2023/05/27 02:33:44;;;;;;;0.30;0.30;;;13.00;92.70;;;;;;5070766;28;20200;-65
2023/05/27 02:36:10;;;;;;;0.00;0.00;;;13.00;92.70;;;;;;5071482;28;20184;-65
2023/05/27 02:38:36;;;;;;;1.23;0.55;;;13.00;92.80;;;;;;5071721;28;20723;-65
2023/05/27 02:41:02;;;;;;;0.00;0.00;;;13.00;92.80;;;;;;5070714;28;20666;-65
2023/05/27 02:43:28;;;;;;;0.00;0.00;;;12.90;92.90;;;;;;5070735;28;20181;-65
2023/05/27 02:45:54;;;;;;;0.00;0.00;;;13.00;93.00;;;;;;5071276;28;20188;-65
2023/05/27 02:48:19;;;;;;;0.00;0.00;;;12.90;93.00;;;;;;5070628;28;20213;-65
2023/05/27 02:50:45;;;;;;;0.47;0.47;;;12.90;93.00;;;;;;5070901;28;20173;-64
2023/05/27 02:53:10;;;;;;;0.00;0.00;;;12.90;93.20;;;;;;5070732;28;20179;-65
2023/05/27 02:55:36;;;;;;;0.00;0.00;;;12.90;93.30;;;;;;5070848;28;20664;-65
2023/05/27 02:58:04;;;;;;;0.10;0.10;;;12.80;93.40;;;;;;5070694;28;20173;-65
2023/05/27 03:00:30;;;;;;;0.00;0.00;;;12.80;93.50;;;;;;5069444;28;20181;-64
2023/05/27 03:02:55;;;;;;;0.00;0.00;;;12.70;93.70;;;;;;5070361;28;20172;-65
2023/05/27 03:05:21;;;;;;;0.00;0.00;;;12.70;93.80;;;;;;5070344;28;20215;-65
2023/05/27 03:07:46;;;;;;;0.10;0.10;;;12.70;94.00;;;;;;5070612;28;20228;-65
2023/05/27 03:10:12;;;;;;;0.00;0.00;;;12.70;94.20;;;;;;5070669;28;20184;-65
2023/05/27 03:12:38;;;;;;;0.00;0.00;;;12.60;94.30;;;;;;5068541;28;20309;-64
2023/05/27 03:15:04;;;;;;;0.00;0.00;;;12.60;94.50;;;;;;5070793;28;20223;-65
2023/05/27 03:17:29;;;;;;;0.00;0.00;;;12.60;94.60;;;;;;5070381;28;20198;-65
2023/05/27 03:19:55;;;;;;;0.00;0.00;;;12.50;94.60;;;;;;5070070;28;20639;-64
2023/05/27 03:22:21;;;;;;;0.08;0.08;;;12.50;94.70;;;;;;5070923;28;20669;-64
2023/05/27 03:24:47;;;;;;;0.00;0.00;;;12.50;94.70;;;;;;5070114;28;20249;-64
2023/05/27 03:27:12;;;;;;;0.00;0.00;;;12.50;94.80;;;;;;5070238;28;20265;-64
2023/05/27 03:29:40;;;;;;;0.00;0.00;;;12.40;94.90;;;;;;5070182;28;20256;-65
2023/05/27 03:32:06;;;;;;;0.00;0.00;;;12.40;94.90;;;;;;5070503;28;20185;-65
2023/05/27 03:34:32;;;;;;;0.00;0.00;;;12.40;94.90;;;;;;5070270;28;20252;-65
2023/05/27 03:36:57;;;;;;;0.00;0.00;;;12.40;94.80;;;;;;5070363;28;20268;-64
2023/05/27 03:39:23;;;;;;;0.00;0.00;;;12.40;94.80;;;;;;5069954;28;20191;-65
2023/05/27 03:41:48;;;;;;;0.05;0.05;;;12.40;94.80;;;;;;5070025;28;20181;-65
2023/05/27 03:44:14;;;;;;;0.00;0.00;;;12.40;94.80;;;;;;5070679;28;20188;-65
2023/05/27 03:46:39;;;;;;;0.00;0.00;;;12.30;94.70;;;;;;5070449;28;20209;-64
2023/05/27 03:49:05;;;;;;;0.00;0.00;;;12.30;94.60;;;;;;5069587;28;20644;-64
2023/05/27 03:51:31;;;;;;;0.00;0.00;;;12.30;94.60;;;;;;5070226;28;20173;-64
2023/05/27 03:53:57;;;;;;;0.00;0.00;;;12.30;94.60;;;;;;5069923;28;20181;-64
2023/05/27 03:56:22;;;;;;;0.00;0.00;;;12.30;94.60;;;;;;5070023;28;20189;-64
2023/05/27 03:58:49;;;;;;;0.00;0.00;;;12.30;94.50;;;;;;5069916;28;20212;-64
2023/05/27 04:01:16;;;;;;;0.00;0.00;;;12.30;94.40;;;;;;5069468;28;20267;-65
2023/05/27 04:03:43;;;;;;;0.00;0.00;;;12.30;94.20;;;;;;5069566;28;20181;-65
2023/05/27 04:06:09;;;;;;;0.00;0.00;;;12.40;94.20;;;;;;5068499;28;20210;-65
2023/05/27 04:08:35;;;;;;;0.10;0.10;;;12.40;94.10;;;;;;5068426;28;20261;-65
2023/05/27 04:11:01;;;;;;;0.00;0.00;;;12.40;94.00;;;;;;5066742;28;20177;-64
2023/05/27 04:13:26;;;;;;;0.00;0.00;;;12.40;93.90;;;;;;5068376;28;20195;-64
2023/05/27 04:15:53;;;;;;;0.00;0.00;;;12.40;93.80;;;;;;5069835;28;20532;-64
2023/05/27 04:18:19;;;;;;;0.10;0.10;;;12.50;93.90;;;;;;5067620;28;20239;-64
2023/05/27 04:20:47;;;;;;;0.00;0.00;;;12.50;93.70;;;;;;5067371;28;20188;-64
2023/05/27 04:23:12;;;;;;;0.00;0.00;;;12.50;93.60;;;;;;5069701;28;20616;-64
2023/05/27 04:25:39;;;;;;;0.00;0.00;;;12.50;93.40;;;;;;5069519;28;20246;-64
2023/05/27 04:28:05;;;;;;;0.00;0.00;;;12.60;93.50;;;;;;5073180;28;20216;-65
2023/05/27 04:30:31;;;;;;;0.00;0.00;;;12.70;93.10;;;;;;5073454;28;20181;-64
2023/05/27 04:32:57;;;;;;;0.05;0.05;;;12.90;93.10;;;;;;5072733;28;20610;-64
2023/05/27 04:35:23;;;;;;;0.00;0.00;;;13.00;92.70;;;;;;5072635;28;20215;-65
2023/05/27 04:37:49;;;;;;;0.40;0.40;;;13.20;92.60;;;;;;5073437;28;20208;-64
2023/05/27 04:40:14;;;;;;;0.00;0.00;;;13.30;92.20;;;;;;5073289;28;20648;-64
2023/05/27 04:42:40;;;;;;;0.00;0.00;;;13.50;91.90;;;;;;5072812;28;20180;-63
2023/05/27 04:45:08;;;;;;;0.00;0.00;;;13.60;91.60;;;;;;5072431;28;20235;-59
2023/05/27 04:47:36;;;;;;;0.00;0.00;;;13.80;91.40;;;;;;5073280;28;20262;-61
2023/05/27 04:50:05;;;;;;;0.00;0.00;;;13.90;91.10;;;;;;5072610;28;20260;-60
2023/05/27 04:52:36;;;;;;;0.00;0.00;;;14.10;90.90;;;;;;5071461;28;20187;-63
2023/05/27 04:55:03;;;;;;;0.00;0.00;;;14.30;90.70;;;;;;5072925;28;20192;-64
2023/05/27 04:57:29;;;;;;;0.00;0.00;;;14.40;90.30;;;;;;5073004;28;20173;-62
2023/05/27 05:02:34;;;;;;;0.00;0.00;;;14.80;89.00;;;;;;5071891;28;20171;-62
2023/05/27 05:05:08;;;;;;;0.00;0.00;;;15.10;88.50;;;;;;5072811;28;20208;-63
2023/05/27 05:07:37;;;;;;;0.00;0.00;;;15.20;87.60;;;;;;5073056;28;20213;-61
2023/05/27 05:10:07;;;;;;;0.00;0.00;;;15.30;86.90;;;;;;5072608;28;20177;-62
2023/05/27 05:12:32;;;;;;;0.00;0.00;;;15.40;86.60;;;;;;5072707;28;20207;-61
2023/05/27 05:14:58;;;;;;;0.00;0.00;;;15.50;86.70;;;;;;5072082;28;20177;-63
2023/05/27 05:17:25;;;;;;;0.10;0.10;;;15.80;85.70;;;;;;5072860;28;20207;-63
2023/05/27 05:19:51;;;;;;;0.00;0.00;;;16.00;84.60;;;;;;5067471;28;20220;-63
2023/05/27 05:22:22;;;;;;;0.00;0.00;;;16.10;83.60;;;;;;5058088;28;20227;-63
2023/05/27 05:24:48;;;;;;;0.00;0.00;;;16.30;83.40;;;;;;5062086;28;20181;-63
2023/05/27 05:27:14;;;;;;;0.00;0.00;;;16.60;82.80;;;;;;5072667;28;20220;-63
2023/05/27 05:29:40;;;;;;;0.00;0.00;;;16.70;82.10;;;;;;5071779;28;20183;-63
2023/05/27 05:32:06;;;;;;;0.00;0.00;;;16.80;81.30;;;;;;5072177;28;20200;-64
2023/05/27 05:34:32;;;;;;;0.00;0.00;;;17.00;80.20;;;;;;5072676;28;20540;-64
2023/05/27 05:36:57;;;;;;;0.00;0.00;;;17.30;80.40;;;;;;5071650;28;20181;-64
2023/05/27 05:39:23;;;;;;;0.00;0.00;;;17.60;79.50;;;;;;5072602;28;20742;-63
2023/05/27 05:41:49;;;;;;;0.00;0.00;;;17.90;77.70;;;;;;5072118;28;20223;-63
2023/05/27 05:44:15;;;;;;;0.00;0.00;;;18.30;75.70;;;;;;5072322;28;20705;-63
2023/05/27 05:46:41;;;;;;;0.00;0.00;;;18.50;74.60;;;;;;5071946;28;20204;-63
2023/05/27 05:49:06;;;;;;;0.00;0.00;;;18.60;73.30;;;;;;5072158;28;20208;-63
2023/05/27 05:51:32;;;;;;;0.08;0.08;;;18.80;72.70;;;;;;5072219;28;20181;-63
2023/05/27 05:53:58;;;;;;;0.00;0.00;;;19.00;71.80;;;;;;5071962;28;20177;-63
2023/05/27 05:56:25;;;;;;;0.00;0.00;;;19.00;70.60;;;;;;5072169;28;20173;-63
2023/05/27 05:58:51;;;;;;;0.00;0.00;;;19.00;70.60;;;;;;5072325;28;20635;-63
2023/05/27 06:01:17;;;;;;;0.00;0.00;;;19.00;70.20;;;;;;5072086;28;20181;-63
2023/05/27 06:03:42;;;;;;;0.00;0.00;;;19.20;70.60;;;;;;5070363;28;20189;-63
2023/05/27 06:06:08;;;;;;;0.00;0.00;;;19.40;69.90;;;;;;5071650;28;20598;-63
2023/05/27 06:08:33;;;;;;;0.00;0.00;;;19.40;68.40;;;;;;5071981;28;20181;-63
2023/05/27 06:10:59;;;;;;;0.00;0.00;;;19.40;68.70;;;;;;5071592;28;20186;-63
2023/05/27 06:13:24;;;;;;;0.00;0.00;;;19.70;68.80;;;;;;5071519;28;20238;-63
2023/05/27 06:15:50;;;;;;;0.00;0.00;;;19.90;68.40;;;;;;5071483;28;20210;-63
2023/05/27 06:18:16;;;;;;;0.00;0.00;;;20.10;67.40;;;;;;5071870;28;20188;-63
2023/05/27 06:20:41;;;;;;;0.00;0.00;;;20.40;66.70;;;;;;5071489;28;20189;-63
2023/05/27 06:23:07;;;;;;;0.00;0.00;;;20.60;66.60;;;;;;5071595;28;20184;-63
2023/05/27 06:25:32;;;;;;;0.00;0.00;;;21.00;65.70;;;;;;5071171;28;20542;-63
2023/05/27 06:27:59;;;;;;;0.00;0.00;;;21.30;65.00;;;;;;5070961;28;20311;-63
2023/05/27 06:30:25;;;;;;;0.00;0.00;;;21.80;64.50;;;;;;5071346;28;20659;-63
2023/05/27 06:32:51;;;;;;;0.00;0.00;;;22.30;64.20;;;;;;5071274;28;20180;-63
2023/05/27 06:35:17;;;;;;;0.00;0.00;;;22.80;61.40;;;;;;5071385;28;20177;-63
2023/05/27 06:37:42;;;;;;;0.05;0.05;;;23.00;60.20;;;;;;5071297;28;20224;-63
2023/05/27 06:40:09;;;;;;;0.00;0.00;;;23.10;58.90;;;;;;5070591;28;20185;-63
2023/05/27 06:42:34;;;;;;;0.38;0.30;;;23.20;58.50;;;;;;5071393;28;20290;-63
2023/05/27 06:44:59;;;;;;;0.00;0.00;;;23.30;58.40;;;;;;5070969;28;20687;-63
2023/05/27 06:47:25;;;;;;;0.05;0.05;;;23.10;57.20;;;;;;5070662;28;20239;-65
2023/05/27 06:49:50;;;;;;;0.00;0.00;;;23.00;57.80;;;;;;5069681;28;20173;-64
2023/05/27 06:52:16;;;;;;;0.00;0.00;;;23.00;57.70;;;;;;5070225;28;20177;-63
2023/05/27 06:54:42;;;;;;;0.17;0.17;;;22.90;57.60;;;;;;5071242;28;20230;-63
2023/05/27 06:57:07;;;;;;;0.15;0.15;;;23.10;57.60;;;;;;5071190;28;20165;-63
2023/05/27 06:59:33;;;;;;;0.00;0.00;;;23.20;57.00;;;;;;5071424;28;20215;-63
2023/05/27 07:01:58;;;;;;;0.00;0.00;;;23.30;56.90;;;;;;5069894;28;20172;-64
2023/05/27 07:04:24;;;;;;;0.00;0.00;;;23.40;56.70;;;;;;5071433;28;20657;-63
2023/05/27 07:06:50;;;;;;;0.00;0.00;;;23.50;56.40;;;;;;5070874;28;20211;-64
2023/05/27 07:09:15;;;;;;;0.00;0.00;;;23.80;56.70;;;;;;5070618;28;20181;-63
2023/05/27 07:11:41;;;;;;;0.00;0.00;;;23.90;56.30;;;;;;5071089;28;20220;-63
2023/05/27 07:14:09;;;;;;;0.00;0.00;;;24.20;55.20;;;;;;5070838;28;20255;-64
2023/05/27 07:16:34;;;;;;;0.00;0.00;;;24.00;54.90;;;;;;5071332;28;20207;-63
2023/05/27 07:19:00;;;;;;;0.00;0.00;;;23.80;55.20;;;;;;5065666;28;20185;-63
2023/05/27 07:21:26;;;;;;;0.00;0.00;;;24.10;55.50;;;;;;5071520;28;20187;-63
2023/05/27 07:23:51;;;;;;;0.00;0.00;;;24.20;54.90;;;;;;5071058;28;20539;-63
2023/05/27 07:26:17;;;;;;;0.00;0.00;;;24.50;54.50;;;;;;5071047;28;20232;-63
2023/05/27 07:28:43;;;;;;;0.00;0.00;;;24.90;54.50;;;;;;5069776;28;20177;-63
2023/05/27 07:31:08;;;;;;;0.00;0.00;;;25.20;53.80;;;;;;5071304;28;20184;-63
2023/05/27 07:33:34;;;;;;;0.00;0.00;;;25.20;53.20;;;;;;5071284;28;20181;-63
2023/05/27 07:35:59;;;;;;;0.00;0.00;;;25.20;53.00;;;;;;5070680;28;20211;-63
2023/05/27 07:38:25;;;;;;;0.00;0.00;;;25.00;52.00;;;;;;5070909;28;20633;-64
2023/05/27 07:40:50;;;;;;;0.00;0.00;;;24.70;52.30;;;;;;5070014;28;20181;-64
2023/05/27 07:43:16;;;;;;;0.00;0.00;;;24.50;53.40;;;;;;5070915;28;20169;-63
2023/05/27 07:45:41;;;;;;;0.00;0.00;;;24.80;53.30;;;;;;5070901;28;20185;-64
2023/05/27 07:48:07;;;;;;;0.00;0.00;;;24.70;53.20;;;;;;5070967;28;20224;-63
2023/05/27 07:50:32;;;;;;;0.00;0.00;;;25.00;53.90;;;;;;5070912;28;20173;-64
2023/05/27 07:52:58;;;;;;;0.90;0.70;;;25.10;52.40;;;;;;5070669;28;20181;-64
2023/05/27 07:55:24;;;;;;;0.00;0.00;;;25.10;52.00;;;;;;5070906;28;20648;-63
2023/05/27 07:57:50;;;;;;;0.00;0.00;;;24.70;52.00;;;;;;5071034;28;20234;-62
2023/05/27 08:00:15;;;;;;;0.10;0.10;;;24.50;52.20;;;;;;5073606;28;20218;-64
2023/05/27 08:02:43;;;;;;;0.00;0.00;;;24.30;52.90;;;;;;5073632;28;20234;-64
2023/05/27 08:05:09;;;;;;;0.00;0.00;;;24.20;53.10;;;;;;5074258;28;20590;-64
2023/05/27 08:07:35;;;;;;;0.00;0.00;;;24.00;52.90;;;;;;5074206;28;20212;-65
2023/05/27 08:10:01;;;;;;;0.00;0.00;;;24.10;53.80;;;;;;5073499;28;20191;-64
2023/05/27 08:12:26;;;;;;;0.00;0.00;;;24.30;54.00;;;;;;5074090;28;20189;-64
2023/05/27 08:14:52;;;;;;;0.00;0.00;;;24.50;53.90;;;;;;5074046;28;20173;-64
2023/05/27 08:17:18;;;;;;;0.00;0.00;;;24.70;53.20;;;;;;5073246;28;20584;-64
2023/05/27 08:19:43;;;;;;;0.00;0.00;;;24.60;52.30;;;;;;5074157;28;20185;-64
2023/05/27 08:22:09;;;;;;;0.00;0.00;;;24.20;52.50;;;;;;5074445;28;20213;-64
2023/05/27 08:24:35;;;;;;;0.00;0.00;;;23.90;52.90;;;;;;5073942;28;20306;-64
2023/05/27 08:27:02;;;;;;;0.00;0.00;;;23.90;54.10;;;;;;5073414;28;20314;-64
2023/05/27 08:29:30;;;;;;;0.00;0.00;;;24.10;54.40;;;;;;5073904;28;20185;-64
2023/05/27 08:31:56;;;;;;;0.08;0.08;;;24.30;53.90;;;;;;5073204;28;20204;-65
2023/05/27 08:34:22;;;;;;;0.00;0.00;;;24.50;54.10;;;;;;5081532;28;20207;-64
2023/05/27 08:36:47;;;;;;;0.00;0.00;;;24.80;53.80;;;;;;5079420;28;20566;-65
2023/05/27 08:39:13;;;;;;;0.00;0.00;;;24.90;53.20;;;;;;5074149;28;20636;-64
2023/05/27 08:41:39;;;;;;;0.00;0.00;;;24.80;52.70;;;;;;5073836;28;20207;-64
2023/05/27 08:44:05;;;;;;;0.00;0.00;;;24.70;53.50;;;;;;5073501;28;20189;-64
2023/05/27 08:46:32;;;;;;;0.00;0.00;;;24.70;53.90;;;;;;5073145;28;20266;-64
2023/05/27 08:48:58;;;;;;;0.13;0.13;;;24.80;54.00;;;;;;5073362;28;20189;-64
2023/05/27 08:51:25;;;;;;;0.00;0.00;;;24.80;54.00;;;;;;5057934;28;20223;-64
2023/05/27 08:53:51;;;;;;;0.00;0.00;;;24.80;54.00;;;;;;5073181;28;20191;-64
2023/05/27 08:56:21;;;;;;;0.00;0.00;;;24.70;54.30;;;;;;5073610;28;20255;-64
2023/05/27 08:58:46;;;;;;;0.00;0.00;;;24.80;54.40;;;;;;5073961;28;20532;-64
2023/05/27 09:01:17;;;;;;;0.00;0.00;;;25.10;54.20;;;;;;5073991;28;20173;-64
2023/05/27 09:03:43;;;;;;;0.00;0.00;;;25.20;53.70;;;;;;5073001;28;20644;-64
2023/05/27 09:06:09;;;;;;;0.00;0.00;;;25.30;53.50;;;;;;5072860;28;20212;-64
2023/05/27 09:08:34;;;;;;;0.00;0.00;;;25.10;52.60;;;;;;5073140;28;20247;-64
2023/05/27 09:11:01;;;;;;;0.00;0.00;;;24.90;53.90;;;;;;5072362;28;20567;-64
2023/05/27 09:13:31;;;;;;;0.00;0.00;;;24.90;55.20;;;;;;5072665;28;20185;-64
2023/05/27 09:16:04;;;;;;;0.00;0.00;;;24.90;54.40;;;;;;5073244;28;20216;-64
2023/05/27 09:18:32;;;;;;;0.00;0.00;;;25.00;54.20;;;;;;5072936;28;20258;-64
2023/05/27 09:20:57;;;;;;;0.00;0.00;;;25.30;55.10;;;;;;5072295;28;20208;-64
2023/05/27 09:23:23;;;;;;;0.00;0.00;;;25.70;55.60;;;;;;5072440;28;20706;-64
2023/05/27 09:25:50;;;;;;;0.00;0.00;;;26.00;53.30;;;;;;5056502;28;20225;-64
2023/05/27 09:28:22;;;;;;;0.05;0.05;;;25.90;53.40;;;;;;5073149;28;20224;-64
2023/05/27 09:31:04;;;;;;;0.00;0.00;;;25.80;52.90;;;;;;5072843;28;20191;-64
2023/05/27 09:33:32;;;;;;;0.00;0.00;;;26.00;53.30;;;;;;5072584;28;20235;-64
2023/05/27 09:36:05;;;;;;;0.17;0.15;;;26.10;53.20;;;;;;5072954;28;20185;-64
2023/05/27 09:38:31;;;;;;;0.00;0.00;;;26.20;52.90;;;;;;5073043;28;20208;-64
2023/05/27 09:40:57;;;;;;;0.00;0.00;;;26.20;52.70;;;;;;5073096;28;20169;-64
2023/05/27 09:43:25;;;;;;;0.00;0.00;;;26.10;53.30;;;;;;5072369;28;20279;-64
2023/05/27 09:45:54;;;;;;;0.00;0.00;;;26.00;53.30;;;;;;5072939;28;20171;-64
2023/05/27 09:48:21;;;;;;;0.00;0.00;;;25.90;54.00;;;;;;5072937;28;20220;-64
2023/05/27 09:50:49;;;;;;;0.00;0.00;;;26.00;53.50;;;;;;5072889;28;20184;-64
2023/05/27 09:53:15;;;;;;;0.00;0.00;;;26.10;53.10;;;;;;5072900;28;20176;-64
2023/05/27 09:55:42;;;;;;;0.32;0.13;;;26.00;53.20;;;;;;5072685;28;20177;-64
2023/05/27 09:58:09;;;;;;;0.00;0.00;;;25.90;54.00;;;;;;5072673;28;20196;-64
2023/05/27 10:00:36;;;;;;;0.00;0.00;;;26.00;54.30;;;;;;5072702;28;20242;-64
2023/05/27 10:03:03;;;;;;;0.00;0.00;;;26.10;53.70;;;;;;5072692;28;20203;-64
2023/05/27 10:05:30;;;;;;;0.10;0.10;;;26.00;54.10;;;;;;5071355;28;20176;-65
2023/05/27 10:07:55;;;;;;;0.00;0.00;;;25.90;53.40;;;;;;5072587;28;20216;-64
2023/05/27 10:10:22;;;;;;;0.00;0.00;;;25.90;54.30;;;;;;5072653;28;20176;-64
2023/05/27 10:12:49;;;;;;;0.00;0.00;;;26.00;53.90;;;;;;5072662;28;20215;-64
2023/05/27 10:15:45;;;;;;;0.00;0.00;;;26.00;54.80;;;;;;5072513;28;20188;-65
2023/05/27 10:18:31;;;;;;;0.00;0.00;;;26.10;53.80;;;;;;5068823;28;20180;-64
2023/05/27 10:20:58;;;;;;;0.32;0.32;;;26.30;53.70;;;;;;5051945;28;20184;-64
2023/05/27 10:23:28;;;;;;;0.00;0.00;;;26.30;53.60;;;;;;5052338;28;20256;-65
2023/05/27 10:26:07;;;;;;;0.00;0.00;;;26.30;54.00;;;;;;5051967;28;20437;-64
2023/05/27 10:28:35;;;;;;;0.00;0.00;;;26.60;54.60;;;;;;5055670;28;20216;-64
2023/05/27 10:31:13;;;;;;;0.00;0.00;;;26.50;52.90;;;;;;5072045;28;20218;-64
2023/05/27 10:33:51;;;;;;;0.00;0.00;;;26.30;54.00;;;;;;5072129;28;20223;-64
2023/05/27 10:36:31;;;;;;;0.00;0.00;;;26.20;53.90;;;;;;5072317;28;20290;-64
2023/05/27 10:39:05;;;;;;;0.00;0.00;;;26.30;54.20;;;;;;5072009;28;20259;-64
2023/05/27 10:41:40;;;;;;;0.00;0.00;;;26.40;53.90;;;;;;5072074;28;20181;-64
2023/05/27 10:44:06;;;;;;;0.00;0.00;;;26.20;53.80;;;;;;5071926;28;20172;-64
2023/05/27 10:46:40;;;;;;;0.00;0.00;;;26.30;54.40;;;;;;5071836;28;20226;-64
2023/05/27 10:49:22;;;;;;;0.00;0.00;;;26.40;54.40;;;;;;5071456;28;20655;-64
2023/05/27 10:51:48;;;;;;;0.00;0.00;;;26.50;54.30;;;;;;5071851;28;20176;-64
2023/05/27 10:54:15;;;;;;;0.00;0.00;;;26.60;54.40;;;;;;5071800;28;20318;-65
2023/05/27 10:56:53;;;;;;;0.00;0.00;;;26.80;54.30;;;;;;5071855;28;20176;-64
2023/05/27 10:59:22;;;;;;;0.10;0.10;;;26.90;53.20;;;;;;5071654;28;20706;-64
2023/05/27 11:01:55;;;;;;;0.00;0.00;;;26.70;53.40;;;;;;5071581;28;20181;-64
2023/05/27 11:04:21;;;;;;;0.00;0.00;;;26.60;53.20;;;;;;5071711;28;20225;-64
2023/05/27 11:07:20;;;;;;;0.00;0.00;;;26.50;53.90;;;;;;5071585;28;20242;-64
2023/05/27 11:09:47;;;;;;;0.00;0.00;;;26.50;53.90;;;;;;5053213;28;20197;-64
2023/05/27 11:12:16;;;;;;;0.00;0.00;;;26.50;53.80;;;;;;5071661;28;20172;-64
2023/05/27 11:14:48;;;;;;;0.05;0.05;;;26.30;53.00;;;;;;5071355;28;20169;-64
2023/05/27 11:17:14;;;;;;;0.00;0.00;;;26.20;53.10;;;;;;5071601;28;20184;-64
2023/05/27 11:19:40;;;;;;;0.00;0.00;;;26.10;53.90;;;;;;5071240;28;20176;-64
2023/05/27 11:22:07;;;;;;;0.00;0.00;;;26.20;54.20;;;;;;5070685;28;20211;-64
2023/05/27 11:24:33;;;;;;;0.00;0.00;;;26.30;53.70;;;;;;5064860;28;20199;-64
2023/05/27 11:26:58;;;;;;;0.40;0.10;;;26.40;53.70;;;;;;5068794;28;20220;-64
2023/05/27 11:29:24;;;;;;;0.10;0.08;;;26.30;52.80;;;;;;5061897;28;20181;-64
2023/05/27 11:31:50;;;;;;;0.10;0.10;;;26.40;52.60;;;;;;5071091;28;20188;-65
2023/05/27 11:34:20;;;;;;;0.00;0.00;;;26.60;53.00;;;;;;5070770;28;20177;-64
2023/05/27 11:36:49;;;;;;;0.00;0.00;;;26.70;53.00;;;;;;5071303;28;20180;-64
2023/05/27 11:39:18;;;;;;;0.00;0.00;;;26.70;53.00;;;;;;5071132;28;20188;-65
2023/05/27 11:41:53;;;;;;;0.00;0.00;;;26.90;53.60;;;;;;5071245;28;20182;-64
2023/05/27 11:44:21;;;;;;;0.00;0.00;;;26.80;51.30;;;;;;5071258;28;20164;-64
2023/05/27 11:46:48;;;;;;;0.00;0.00;;;26.80;51.50;;;;;;5071107;28;20295;-64
2023/05/27 11:49:16;;;;;;;0.00;0.00;;;26.80;51.90;;;;;;5069776;28;20187;-64
2023/05/27 11:51:46;;;;;;;0.00;0.00;;;26.90;52.00;;;;;;5071963;28;20187;-64
2023/05/27 11:54:26;;;;;;;0.00;0.00;;;26.90;51.40;;;;;;5071033;28;20176;-64
2023/05/27 11:56:53;;;;;;;0.00;0.00;;;26.70;50.90;;;;;;5070797;28;21214;-64
2023/05/27 11:59:20;;;;;;;0.00;0.00;;;26.60;51.60;;;;;;5071158;28;20188;-64
2023/05/27 12:01:46;;;;;;;0.00;0.00;;;26.60;51.40;;;;;;5069858;28;20204;-65
2023/05/27 12:04:12;;;;;;;0.00;0.00;;;26.50;51.30;;;;;;5066918;28;20212;-65
2023/05/27 12:06:38;;;;;;;0.00;0.00;;;26.60;51.70;;;;;;5070380;28;20207;-64
2023/05/27 12:09:10;;;;;;;0.00;0.00;;;26.80;51.20;;;;;;5070972;28;20663;-64
2023/05/27 12:11:36;;;;;;;0.10;0.10;;;26.60;50.80;;;;;;5070890;28;20177;-64
2023/05/27 12:14:03;;;;;;;0.00;0.00;;;26.60;51.00;;;;;;5070730;28;20196;-64
2023/05/27 12:16:28;;;;;;;0.00;0.00;;;26.50;50.80;;;;;;5070870;28;20272;-64
2023/05/27 12:18:54;;;;;;;0.00;0.00;;;26.50;51.50;;;;;;5070731;28;20264;-64
2023/05/27 12:21:20;;;;;;;0.00;0.00;;;26.30;51.40;;;;;;5070929;28;20185;-64
2023/05/27 12:23:46;;;;;;;0.80;0.77;;;26.40;51.40;;;;;;5070696;28;20612;-64
2023/05/27 12:26:13;;;;;;;0.00;0.00;;;26.30;51.30;;;;;;5070328;28;20231;-64
2023/05/27 12:28:40;;;;;;;0.05;0.05;;;26.30;52.00;;;;;;5070858;28;20208;-64
2023/05/27 12:31:06;;;;;;;0.98;0.38;;;26.00;51.30;;;;;;5062258;28;20220;-64
2023/05/27 12:33:31;;;;;;;0.00;0.00;;;25.80;51.20;;;;;;5050760;28;20186;-64
2023/05/27 12:35:58;;;;;;;0.00;0.00;;;25.90;52.00;;;;;;5050428;28;20174;-64
2023/05/27 12:38:24;;;;;;;0.00;0.00;;;26.10;51.90;;;;;;5050812;28;20173;-64
2023/05/27 12:40:49;;;;;;;0.00;0.00;;;26.20;51.80;;;;;;5050454;28;20660;-64
2023/05/27 12:43:17;;;;;;;0.00;0.00;;;26.30;52.00;;;;;;5050610;28;20311;-64
2023/05/27 12:45:44;;;;;;;0.00;0.00;;;26.20;50.90;;;;;;5050924;28;20180;-64
2023/05/27 12:48:10;;;;;;;0.00;0.00;;;26.20;50.70;;;;;;5054004;28;20213;-64
2023/05/27 12:50:36;;;;;;;0.00;0.00;;;26.30;51.20;;;;;;5054247;28;20165;-64